Time;durP1;ratioP1;P1;durP2;ratioP2;P2;SDS_P1;SDS_P2;PMS_P1;PMS_P2;Temp;Humidity;BMP_temperature;BMP_pressure;BME280_temperature;BME280_humidity;BME280_pressure;Samples;Min_cycle;Max_cycle;Signal;HPM_P1;HPM_P2
2020/12/12 00:01:32;;;;;;;28.85;15.57;;;-0.60;92.20;;;;;;5053479;28;20100;-78
2020/12/12 00:03:58;;;;;;;23.30;13.10;;;-0.60;92.10;;;;;;5053463;28;20382;-79
2020/12/12 00:06:23;;;;;;;24.50;12.48;;;-0.60;92.10;;;;;;5053293;28;20021;-78
2020/12/12 00:08:49;;;;;;;31.77;15.50;;;-0.60;92.10;;;;;;5053598;28;20029;-78
2020/12/12 00:11:15;;;;;;;26.15;13.05;;;-0.60;92.10;;;;;;5053922;28;20033;-78
2020/12/12 00:13:41;;;;;;;29.38;16.10;;;-0.60;92.10;;;;;;5035720;28;20029;-77
2020/12/12 00:16:06;;;;;;;40.40;18.23;;;-0.60;92.10;;;;;;5053499;28;20168;-79
2020/12/12 00:18:33;;;;;;;32.38;14.55;;;-0.60;92.00;;;;;;5053048;28;20029;-80
2020/12/12 00:20:59;;;;;;;36.38;15.52;;;-0.60;92.10;;;;;;5035315;28;20029;-78
2020/12/12 00:23:25;;;;;;;29.52;14.27;;;-0.60;92.10;;;;;;5053508;28;20033;-79
2020/12/12 00:25:51;;;;;;;34.40;15.82;;;-0.60;92.00;;;;;;5053509;28;20040;-77
2020/12/12 00:28:18;;;;;;;28.48;14.80;;;-0.60;91.90;;;;;;5054933;28;20108;-78
2020/12/12 00:30:47;;;;;;;29.05;13.38;;;-0.70;91.80;;;;;;5053745;28;20032;-79
2020/12/12 00:33:13;;;;;;;34.15;15.70;;;-0.70;91.70;;;;;;5052527;28;20445;-78
2020/12/12 00:35:39;;;;;;;29.00;15.77;;;-0.70;91.80;;;;;;5052570;28;20144;-79
2020/12/12 00:38:05;;;;;;;36.85;16.42;;;-0.70;91.60;;;;;;5052555;28;20033;-78
2020/12/12 00:40:30;;;;;;;29.83;14.93;;;-0.80;91.60;;;;;;5052787;28;20114;-79
2020/12/12 00:42:56;;;;;;;30.00;14.85;;;-0.80;91.70;;;;;;5053090;28;20510;-78
2020/12/12 00:45:22;;;;;;;32.53;15.90;;;-0.80;91.60;;;;;;5053071;28;20029;-79
2020/12/12 00:47:47;;;;;;;30.00;13.60;;;-0.80;91.50;;;;;;5035148;28;20541;-78
2020/12/12 00:50:13;;;;;;;25.75;15.45;;;-0.80;91.60;;;;;;5056582;28;20056;-79
2020/12/12 00:52:39;;;;;;;30.25;14.27;;;-0.90;91.50;;;;;;5038928;28;20877;-79
2020/12/12 00:55:05;;;;;;;29.10;14.30;;;-0.90;91.30;;;;;;5056976;28;20027;-79
2020/12/12 00:57:30;;;;;;;39.97;18.65;;;-0.90;91.40;;;;;;5038841;28;20075;-79
2020/12/12 00:59:56;;;;;;;29.25;13.98;;;-0.90;91.40;;;;;;5056635;28;20029;-79
2020/12/12 01:02:22;;;;;;;34.92;15.40;;;-1.00;91.50;;;;;;5038343;28;20120;-80
2020/12/12 01:04:47;;;;;;;28.90;13.88;;;-1.00;91.40;;;;;;5056099;28;20036;-79
2020/12/12 01:07:13;;;;;;;31.67;15.70;;;-1.00;91.30;;;;;;5056060;28;20029;-79
2020/12/12 01:09:39;;;;;;;33.30;14.65;;;-1.10;91.30;;;;;;5056031;28;20490;-79
2020/12/12 01:12:04;;;;;;;35.20;16.58;;;-1.10;91.30;;;;;;5055965;28;20025;-79
2020/12/12 01:14:30;;;;;;;37.03;17.40;;;-1.10;91.30;;;;;;5055946;28;20025;-79
2020/12/12 01:16:59;;;;;;;32.03;14.85;;;-1.10;91.40;;;;;;5055983;28;20017;-79
2020/12/12 01:19:25;;;;;;;39.50;15.38;;;-1.10;91.50;;;;;;5055940;28;20025;-79
2020/12/12 01:21:53;;;;;;;24.95;14.02;;;-1.10;91.30;;;;;;5055898;28;20104;-79
2020/12/12 01:24:19;;;;;;;30.33;13.98;;;-1.10;91.20;;;;;;5055876;28;20059;-78
2020/12/12 01:26:46;;;;;;;27.15;12.48;;;-1.20;91.10;;;;;;5055890;28;20029;-79
2020/12/12 01:29:12;;;;;;;25.95;13.07;;;-1.20;91.00;;;;;;5055695;28;20602;-79
2020/12/12 01:31:38;;;;;;;31.95;14.35;;;-1.20;91.00;;;;;;5055838;28;20104;-79
2020/12/12 01:34:04;;;;;;;28.75;15.02;;;-1.20;91.10;;;;;;5055552;28;20044;-79
2020/12/12 01:36:30;;;;;;;27.10;13.48;;;-1.20;91.20;;;;;;5055022;28;20053;-80
2020/12/12 01:38:56;;;;;;;29.58;12.85;;;-1.30;91.10;;;;;;5055722;28;20051;-79
2020/12/12 01:41:22;;;;;;;27.85;14.13;;;-1.20;91.00;;;;;;5055645;28;20040;-80
2020/12/12 01:43:51;;;;;;;30.50;14.07;;;-1.30;91.00;;;;;;5055725;28;20410;-79
2020/12/12 01:46:25;;;;;;;27.52;14.95;;;-1.30;91.00;;;;;;5055234;28;20421;-80
2020/12/12 01:48:53;;;;;;;28.33;14.98;;;-1.30;91.00;;;;;;5055386;28;20104;-79
2020/12/12 01:51:21;;;;;;;29.13;15.10;;;-1.30;91.00;;;;;;5055301;28;20029;-79
2020/12/12 01:53:52;;;;;;;20.85;10.60;;;-1.30;90.90;;;;;;5055466;28;20024;-80
2020/12/12 01:56:18;;;;;;;30.70;15.23;;;-1.30;90.90;;;;;;5055489;28;20103;-80
2020/12/12 01:58:44;;;;;;;25.63;13.98;;;-1.40;90.90;;;;;;5037178;28;20048;-80
2020/12/12 02:01:13;;;;;;;24.80;12.77;;;-1.40;90.80;;;;;;5054938;28;20032;-80
2020/12/12 02:03:42;;;;;;;26.85;13.02;;;-1.40;90.80;;;;;;5055452;28;20059;-80
2020/12/12 02:06:12;;;;;;;28.52;14.35;;;-1.40;90.80;;;;;;5055252;28;20535;-80
2020/12/12 02:08:38;;;;;;;27.98;14.43;;;-1.40;90.80;;;;;;5037266;28;20037;-80
2020/12/12 02:11:07;;;;;;;29.75;13.73;;;-1.40;90.80;;;;;;5037521;28;20025;-80
2020/12/12 02:13:33;;;;;;;21.35;11.85;;;-1.50;90.80;;;;;;5055225;28;20483;-80
2020/12/12 02:15:59;;;;;;;29.20;14.63;;;-1.50;90.70;;;;;;5056110;28;20021;-80
2020/12/12 02:18:25;;;;;;;30.13;14.52;;;-1.50;90.70;;;;;;5056152;28;20021;-80
2020/12/12 02:21:00;;;;;;;25.83;13.10;;;-1.50;90.70;;;;;;5054914;28;20029;-80
2020/12/12 02:23:27;;;;;;;26.23;13.85;;;-1.50;90.70;;;;;;5054601;28;20079;-80
2020/12/12 02:25:55;;;;;;;27.92;14.77;;;-1.60;90.60;;;;;;5054653;28;20044;-81
2020/12/12 02:28:27;;;;;;;34.42;16.35;;;-1.60;90.60;;;;;;5054336;28;20029;-79
2020/12/12 02:30:53;;;;;;;30.05;15.55;;;-1.60;90.70;;;;;;5054106;28;20389;-79
2020/12/12 02:33:19;;;;;;;27.80;14.65;;;-1.60;90.90;;;;;;5054090;28;20106;-79
2020/12/12 02:35:45;;;;;;;25.50;13.65;;;-1.60;90.80;;;;;;5054834;28;20024;-79
2020/12/12 02:38:10;;;;;;;28.50;15.30;;;-1.50;90.80;;;;;;5055034;28;20091;-78
2020/12/12 02:40:36;;;;;;;28.73;14.02;;;-1.50;90.70;;;;;;5036916;28;20029;-78
2020/12/12 02:43:02;;;;;;;27.15;12.63;;;-1.50;90.70;;;;;;5036656;28;20025;-79
2020/12/12 02:45:28;;;;;;;27.52;14.43;;;-1.50;90.70;;;;;;5054124;28;20033;-79
2020/12/12 02:47:53;;;;;;;25.38;12.20;;;-1.60;90.60;;;;;;5035896;28;20154;-79
2020/12/12 02:50:27;;;;;;;25.77;14.00;;;-1.50;90.50;;;;;;5054003;28;20468;-79
2020/12/12 02:52:53;;;;;;;27.08;14.02;;;-1.60;90.50;;;;;;5053842;28;20013;-78
2020/12/12 02:55:20;;;;;;;32.28;14.20;;;-1.60;90.80;;;;;;5054071;28;20031;-78
2020/12/12 02:57:45;;;;;;;29.15;13.85;;;-1.60;90.70;;;;;;5053813;28;20025;-78
2020/12/12 03:00:14;;;;;;;27.60;13.30;;;-1.60;90.60;;;;;;5054099;28;20491;-78
2020/12/12 03:02:40;;;;;;;27.95;13.55;;;-1.60;90.40;;;;;;5054117;28;20032;-78
2020/12/12 03:05:07;;;;;;;30.80;15.20;;;-1.70;90.30;;;;;;5035912;28;20382;-79
2020/12/12 03:07:33;;;;;;;32.67;15.98;;;-1.70;90.40;;;;;;5053621;28;20025;-78
2020/12/12 03:10:00;;;;;;;31.25;15.90;;;-1.70;90.40;;;;;;5053827;28;20078;-78
2020/12/12 03:12:26;;;;;;;32.65;15.38;;;-1.70;90.50;;;;;;5053461;28;20021;-78
2020/12/12 03:14:52;;;;;;;24.88;13.75;;;-1.70;90.40;;;;;;5053984;28;20028;-78
2020/12/12 03:17:17;;;;;;;31.73;14.18;;;-1.70;90.40;;;;;;5035751;28;20055;-78
2020/12/12 03:19:43;;;;;;;32.95;14.65;;;-1.70;90.40;;;;;;5053643;28;20412;-78
2020/12/12 03:22:09;;;;;;;24.67;12.25;;;-1.70;90.30;;;;;;5035596;28;20068;-78
2020/12/12 03:24:36;;;;;;;26.55;12.65;;;-1.80;90.10;;;;;;5053052;28;20048;-78
2020/12/12 03:27:02;;;;;;;26.13;11.90;;;-1.80;90.20;;;;;;5035019;28;20033;-78
2020/12/12 03:29:28;;;;;;;25.67;11.70;;;-1.80;90.10;;;;;;5034953;28;20033;-78
2020/12/12 03:31:53;;;;;;;28.58;13.40;;;-1.80;90.10;;;;;;5051789;28;20486;-79
2020/12/12 03:34:19;;;;;;;23.20;11.85;;;-1.80;90.20;;;;;;5051808;28;20056;-78
2020/12/12 03:36:45;;;;;;;27.75;14.60;;;-1.80;90.20;;;;;;5034041;28;20025;-79
2020/12/12 03:39:11;;;;;;;28.92;14.23;;;-1.80;90.20;;;;;;5051491;28;20025;-79
2020/12/12 03:41:37;;;;;;;24.13;12.55;;;-1.90;90.30;;;;;;5051575;28;20088;-77
2020/12/12 03:44:03;;;;;;;27.42;13.23;;;-1.80;90.40;;;;;;5052819;28;20047;-78
2020/12/12 03:46:28;;;;;;;25.90;14.38;;;-1.80;90.30;;;;;;5034935;28;20347;-77
2020/12/12 03:48:54;;;;;;;23.48;12.85;;;-1.80;90.30;;;;;;5034520;28;20116;-78
2020/12/12 03:51:20;;;;;;;20.88;12.50;;;-1.80;90.20;;;;;;5034849;28;20053;-78
2020/12/12 03:53:46;;;;;;;27.52;11.75;;;-1.80;90.20;;;;;;5052563;28;20112;-78
2020/12/12 03:56:14;;;;;;;30.00;14.93;;;-1.90;90.20;;;;;;5052458;28;20053;-78
2020/12/12 03:58:40;;;;;;;32.30;15.73;;;-1.90;90.10;;;;;;5052381;28;20100;-78
2020/12/12 04:01:06;;;;;;;34.40;14.63;;;-1.90;90.10;;;;;;5053969;28;20057;-78
2020/12/12 04:03:32;;;;;;;25.73;13.02;;;-1.90;90.00;;;;;;5052151;28;20468;-79
2020/12/12 04:05:57;;;;;;;37.30;14.77;;;-1.90;90.20;;;;;;5052983;28;20032;-78
2020/12/12 04:08:23;;;;;;;28.50;13.75;;;-2.00;90.20;;;;;;5052850;28;20094;-79
2020/12/12 04:10:49;;;;;;;28.80;15.10;;;-1.90;90.30;;;;;;5052481;28;20105;-79
2020/12/12 04:13:15;;;;;;;26.90;13.10;;;-1.90;90.30;;;;;;5052255;28;20079;-79
2020/12/12 04:15:40;;;;;;;29.95;14.07;;;-1.90;90.30;;;;;;5052544;28;20029;-78
2020/12/12 04:18:06;;;;;;;25.45;13.50;;;-1.90;90.20;;;;;;5052325;28;20730;-79
2020/12/12 04:20:32;;;;;;;28.02;13.93;;;-1.90;90.30;;;;;;5052235;28;20104;-78
2020/12/12 04:22:57;;;;;;;32.60;15.30;;;-1.90;90.30;;;;;;5053868;28;20021;-79
2020/12/12 04:25:23;;;;;;;25.52;13.25;;;-1.90;90.30;;;;;;5028889;28;820984;-80
2020/12/12 04:27:49;;;;;;;32.10;15.15;;;-1.90;90.30;;;;;;5058383;28;20681;-80
2020/12/12 04:30:15;;;;;;;31.60;14.02;;;-1.90;90.20;;;;;;5056951;28;20029;-79
2020/12/12 04:32:40;;;;;;;33.20;13.85;;;-1.90;90.30;;;;;;5057398;28;20017;-79
2020/12/12 04:35:06;;;;;;;29.40;14.52;;;-1.90;90.30;;;;;;5057183;28;20376;-80
2020/12/12 04:37:32;;;;;;;27.02;12.95;;;-1.90;90.30;;;;;;5057549;28;20021;-79
2020/12/12 04:39:58;;;;;;;29.83;14.70;;;-1.90;90.30;;;;;;5057329;28;20044;-79
2020/12/12 04:42:27;;;;;;;31.83;15.02;;;-1.90;90.30;;;;;;5056908;28;20029;-80
2020/12/12 04:44:53;;;;;;;34.85;15.43;;;-1.90;90.30;;;;;;5039242;28;20029;-80
2020/12/12 04:47:20;;;;;;;27.55;11.48;;;-1.90;90.30;;;;;;5057309;28;20025;-79
2020/12/12 04:49:46;;;;;;;32.92;15.63;;;-1.90;90.30;;;;;;5056401;28;20025;-79
2020/12/12 04:52:15;;;;;;;26.23;12.13;;;-1.90;90.20;;;;;;5056674;28;20092;-78
2020/12/12 04:54:45;;;;;;;24.50;12.38;;;-1.90;90.20;;;;;;5056641;28;20090;-78
2020/12/12 04:57:11;;;;;;;27.63;13.13;;;-1.90;90.10;;;;;;5056643;28;20025;-79
2020/12/12 04:59:41;;;;;;;28.13;14.10;;;-1.90;90.10;;;;;;5056452;28;20062;-80
2020/12/12 05:02:06;;;;;;;30.10;13.27;;;-1.90;90.20;;;;;;5057010;28;20439;-81
2020/12/12 05:04:32;;;;;;;39.03;15.98;;;-1.90;90.30;;;;;;5056563;28;20116;-80
2020/12/12 05:06:58;;;;;;;27.73;14.98;;;-1.90;90.20;;;;;;5056726;28;20024;-80
2020/12/12 05:09:26;;;;;;;31.30;13.82;;;-1.90;90.20;;;;;;5056340;28;20033;-80
2020/12/12 05:11:52;;;;;;;36.38;15.20;;;-1.90;90.20;;;;;;5038332;28;20021;-80
2020/12/12 05:14:18;;;;;;;30.10;12.10;;;-1.90;90.10;;;;;;5056476;28;20437;-80
2020/12/12 05:16:47;;;;;;;31.83;13.50;;;-1.90;90.10;;;;;;5056235;28;20026;-80
2020/12/12 05:19:15;;;;;;;25.33;12.65;;;-1.90;90.10;;;;;;5037720;28;20029;-80
2020/12/12 05:21:48;;;;;;;24.42;11.88;;;-2.00;90.00;;;;;;5055418;28;20029;-81
2020/12/12 05:24:15;;;;;;;32.35;13.30;;;-2.00;89.80;;;;;;5055827;28;20037;-79
2020/12/12 05:26:45;;;;;;;27.05;13.13;;;-2.00;89.80;;;;;;5037937;28;20032;-79
2020/12/12 05:29:14;;;;;;;24.35;11.73;;;-2.00;90.10;;;;;;5037980;28;20047;-80
2020/12/12 05:31:41;;;;;;;29.48;13.18;;;-2.00;90.00;;;;;;5038098;28;20029;-80
2020/12/12 05:34:12;;;;;;;24.98;13.00;;;-2.00;90.00;;;;;;5055391;28;20025;-79
2020/12/12 05:36:41;;;;;;;25.50;13.35;;;-2.00;90.10;;;;;;5038288;28;20025;-80
2020/12/12 05:39:10;;;;;;;33.33;12.77;;;-2.00;90.10;;;;;;5038108;28;20475;-80
2020/12/12 05:41:36;;;;;;;22.95;10.73;;;-2.00;90.10;;;;;;5055870;28;20470;-79
2020/12/12 05:44:02;;;;;;;29.20;12.25;;;-2.00;90.00;;;;;;5056176;28;20475;-79
2020/12/12 05:46:29;;;;;;;23.38;12.13;;;-2.00;90.00;;;;;;5055666;28;20411;-81
2020/12/12 05:48:55;;;;;;;27.08;12.00;;;-2.00;90.00;;;;;;5037634;28;20479;-81
2020/12/12 05:51:21;;;;;;;21.70;12.20;;;-2.00;90.00;;;;;;5055898;28;20430;-81
2020/12/12 05:53:48;;;;;;;29.80;12.43;;;-2.10;90.00;;;;;;5055839;28;20029;-81
2020/12/12 05:56:14;;;;;;;25.88;13.25;;;-2.00;90.10;;;;;;5055692;28;20029;-80
2020/12/12 05:58:44;;;;;;;26.23;13.57;;;-2.00;90.10;;;;;;5037092;28;20108;-79
2020/12/12 06:01:18;;;;;;;27.40;13.32;;;-2.00;90.10;;;;;;5055034;28;20116;-79
2020/12/12 06:03:53;;;;;;;24.05;12.10;;;-2.00;90.10;;;;;;5055237;28;20426;-80
2020/12/12 06:06:23;;;;;;;20.92;10.77;;;-2.00;90.00;;;;;;5055108;28;20412;-79
2020/12/12 06:09:09;;;;;;;25.60;13.30;;;-2.00;90.00;;;;;;5055277;28;20445;-79
2020/12/12 06:11:40;;;;;;;24.23;10.73;;;-2.00;90.00;;;;;;5036611;28;20360;-79
2020/12/12 06:14:06;;;;;;;24.63;11.55;;;-2.00;90.00;;;;;;5036894;28;20463;-80
2020/12/12 06:16:34;;;;;;;23.80;10.90;;;-2.00;90.00;;;;;;5054151;28;20078;-80
2020/12/12 06:19:06;;;;;;;25.85;12.25;;;-1.90;90.10;;;;;;5054079;28;20024;-80
2020/12/12 06:21:32;;;;;;;;;;;-1.90;90.10;;;;;;5055129;28;20070;-80
2020/12/12 06:23:59;;;;;;;40.13;12.90;;;-1.90;90.10;;;;;;5036178;28;19904;-79
2020/12/12 06:26:52;;;;;;;24.48;11.98;;;-1.90;90.10;;;;;;5054603;28;20029;-80
2020/12/12 06:29:19;;;;;;;26.48;12.57;;;-1.90;89.90;;;;;;5026405;28;20132;-80
2020/12/12 06:31:45;;;;;;;23.80;11.55;;;-1.90;90.00;;;;;;5054616;28;20021;-80
2020/12/12 06:34:11;;;;;;;27.77;13.38;;;-1.90;90.00;;;;;;5036043;28;20364;-79
2020/12/12 06:36:43;;;;;;;30.15;14.60;;;-1.90;90.00;;;;;;5054130;28;20027;-80
2020/12/12 06:39:25;;;;;;;31.65;14.68;;;-1.90;90.00;;;;;;5054065;28;20017;-80
2020/12/12 06:41:58;;;;;;;27.35;12.93;;;-1.90;90.10;;;;;;5054057;28;20159;-80
2020/12/12 06:44:37;;;;;;;38.50;14.82;;;-1.80;90.00;;;;;;5053816;28;20099;-81
2020/12/12 06:47:05;;;;;;;24.00;11.57;;;-1.90;90.00;;;;;;5035396;28;20021;-81
2020/12/12 06:49:31;;;;;;;29.80;12.13;;;-1.90;90.00;;;;;;5054902;28;20025;-81
2020/12/12 06:51:57;;;;;;;29.83;13.88;;;-1.90;89.80;;;;;;5053993;28;20025;-80
2020/12/12 06:54:23;;;;;;;30.63;12.30;;;-1.90;89.80;;;;;;5036084;28;20029;-80
2020/12/12 06:56:50;;;;;;;29.55;12.93;;;-1.90;89.60;;;;;;5053558;28;20028;-80
2020/12/12 06:59:30;;;;;;;25.90;11.77;;;-1.90;89.80;;;;;;5053653;28;20061;-80
2020/12/12 07:02:00;;;;;;;30.40;12.73;;;-1.90;90.00;;;;;;5053518;28;20549;-80
2020/12/12 07:04:37;;;;;;;27.20;12.63;;;-1.90;89.80;;;;;;5053719;28;20021;-81
2020/12/12 07:07:11;;;;;;;38.85;14.57;;;-1.90;89.80;;;;;;5053548;28;20029;-81
2020/12/12 07:09:39;;;;;;;30.52;13.50;;;-1.90;90.00;;;;;;5035575;28;20033;-81
2020/12/12 07:12:05;;;;;;;35.33;14.30;;;-1.90;90.00;;;;;;5053617;28;20028;-81
2020/12/12 07:14:36;;;;;;;29.10;12.88;;;-1.90;90.00;;;;;;5055761;28;20737;-80
2020/12/12 07:17:03;;;;;;;26.65;11.55;;;-1.90;90.00;;;;;;5034362;28;20075;-80
2020/12/12 07:19:40;;;;;;;31.40;11.82;;;-1.90;90.00;;;;;;5054126;28;20453;-82
2020/12/12 07:22:10;;;;;;;37.28;14.27;;;-1.90;90.00;;;;;;5053412;28;20031;-81
2020/12/12 07:24:37;;;;;;;31.58;12.32;;;-1.80;90.00;;;;;;5053123;28;20071;-80
2020/12/12 07:27:06;;;;;;;26.40;12.00;;;-1.80;90.00;;;;;;5052962;28;20383;-80
2020/12/12 07:29:33;;;;;;;36.97;15.20;;;-1.80;89.90;;;;;;5052978;28;20056;-81
2020/12/12 07:31:59;;;;;;;40.58;15.02;;;-1.80;90.10;;;;;;5052576;28;20367;-81
2020/12/12 07:34:26;;;;;;;40.97;17.17;;;-1.80;90.10;;;;;;5052381;28;20021;-82
2020/12/12 07:36:58;;;;;;;25.77;12.80;;;-1.70;90.40;;;;;;5052420;28;20013;-82
2020/12/12 07:39:31;;;;;;;27.77;11.90;;;-1.70;90.20;;;;;;5052418;28;20048;-81
2020/12/12 07:41:59;;;;;;;31.60;13.52;;;-1.70;90.10;;;;;;5033018;28;20064;-82
2020/12/12 07:44:27;;;;;;;39.78;16.45;;;-1.70;90.00;;;;;;5052523;28;20029;-82
2020/12/12 07:46:55;;;;;;;22.77;10.75;;;-1.70;90.00;;;;;;5052415;28;20090;-81
2020/12/12 07:49:21;;;;;;;42.72;16.70;;;-1.70;89.90;;;;;;5034897;28;20049;-84
2020/12/12 07:51:47;;;;;;;27.00;13.30;;;-1.70;89.80;;;;;;5052568;28;20029;-81
2020/12/12 07:54:23;;;;;;;36.05;14.65;;;-1.70;89.60;;;;;;5034488;28;20021;-81
2020/12/12 07:56:53;;;;;;;26.77;11.73;;;-1.80;89.60;;;;;;5052212;28;20071;-82
2020/12/12 07:59:20;;;;;;;33.85;13.30;;;-1.70;90.00;;;;;;5052611;28;20017;-82
2020/12/12 08:01:48;;;;;;;28.45;13.98;;;-1.80;90.00;;;;;;5034280;28;20025;-83
2020/12/12 08:04:22;;;;;;;29.92;13.18;;;-1.70;90.00;;;;;;5034345;28;20383;-83
2020/12/12 08:06:48;;;;;;;30.70;13.65;;;-1.70;90.00;;;;;;5052535;28;20396;-82
2020/12/12 08:09:18;;;;;;;59.78;23.63;;;-1.70;90.00;;;;;;5043144;28;20032;-83
2020/12/12 08:11:44;;;;;;;40.78;14.65;;;-1.70;90.10;;;;;;5042993;28;20022;-83
2020/12/12 08:14:10;;;;;;;33.13;14.55;;;-1.70;89.90;;;;;;5040264;28;20383;-83
2020/12/12 08:16:45;;;;;;;29.50;11.85;;;-1.70;90.10;;;;;;5033395;28;20020;-83
2020/12/12 08:19:11;;;;;;;29.83;12.10;;;-1.70;89.90;;;;;;5040684;28;20100;-83
2020/12/12 08:21:37;;;;;;;33.30;11.80;;;-1.70;89.70;;;;;;5032058;28;20031;-83
2020/12/12 08:24:06;;;;;;;29.77;12.52;;;-1.70;89.90;;;;;;5040442;28;20022;-82
2020/12/12 08:26:37;;;;;;;37.05;14.70;;;-1.70;89.60;;;;;;5040863;28;20136;-85
2020/12/12 08:29:05;;;;;;;30.83;14.77;;;-1.70;89.90;;;;;;5046245;28;20384;-83
2020/12/12 08:31:40;;;;;;;38.05;13.40;;;-1.70;90.00;;;;;;5040548;28;20017;-84
2020/12/12 08:34:07;;;;;;;28.60;11.90;;;-1.70;89.90;;;;;;5047190;28;20025;-83
2020/12/12 08:36:34;;;;;;;28.50;12.50;;;-1.80;89.50;;;;;;5038729;28;20027;-81
2020/12/12 08:39:05;;;;;;;35.60;15.10;;;-1.80;89.40;;;;;;5044159;28;20013;-83
2020/12/12 08:41:39;;;;;;;46.08;17.70;;;-1.80;89.50;;;;;;5042907;28;20017;-81
2020/12/12 08:44:05;;;;;;;28.05;11.32;;;-1.90;89.50;;;;;;5038296;28;21351;-83
2020/12/12 08:46:32;;;;;;;26.73;12.65;;;-1.90;89.80;;;;;;5035336;28;20049;-83
2020/12/12 08:49:01;;;;;;;30.10;12.85;;;-1.90;89.80;;;;;;5043978;28;20029;-81
2020/12/12 08:51:28;;;;;;;24.05;11.48;;;-1.90;90.20;;;;;;5031633;28;20064;-82
2020/12/12 08:53:54;;;;;;;30.30;13.80;;;-1.90;90.00;;;;;;5032764;28;20020;-83
2020/12/12 08:56:30;;;;;;;36.40;15.35;;;-1.90;90.00;;;;;;5041666;28;20052;-83
2020/12/12 08:59:01;;;;;;;31.10;12.68;;;-2.00;90.00;;;;;;5048395;28;20017;-83
2020/12/12 09:01:39;;;;;;;32.20;12.20;;;-2.00;90.00;;;;;;5033998;28;20021;-83
2020/12/12 09:04:12;;;;;;;39.17;13.52;;;-1.90;90.10;;;;;;5033930;28;20761;-83
2020/12/12 09:06:41;;;;;;;34.17;15.35;;;-1.90;90.10;;;;;;5051613;28;20055;-84
2020/12/12 09:09:13;;;;;;;28.70;12.43;;;-1.90;90.10;;;;;;5034321;28;20048;-84
2020/12/12 09:11:48;;;;;;;34.97;15.05;;;-1.90;90.20;;;;;;5055196;28;20096;-82
2020/12/12 09:14:14;;;;;;;35.80;14.40;;;-1.80;90.20;;;;;;5055545;28;20478;-82
2020/12/12 09:16:47;;;;;;;41.90;14.05;;;-1.80;90.30;;;;;;5036776;28;20028;-82
2020/12/12 09:19:12;;;;;;;35.47;15.15;;;-1.80;90.20;;;;;;5056111;28;20121;-84
2020/12/12 09:21:38;;;;;;;28.83;14.07;;;-1.80;90.20;;;;;;5056297;28;20527;-83
2020/12/12 09:24:04;;;;;;;40.22;15.55;;;-1.80;90.10;;;;;;5055132;28;20021;-80
2020/12/12 09:26:31;;;;;;;32.05;13.18;;;-1.80;90.00;;;;;;5054304;28;20495;-81
2020/12/12 09:28:56;;;;;;;33.90;15.45;;;-1.80;90.00;;;;;;5054742;28;20021;-81
2020/12/12 09:31:24;;;;;;;29.10;13.15;;;-1.80;90.10;;;;;;5054495;28;20025;-80
2020/12/12 09:33:50;;;;;;;35.25;14.98;;;-1.80;90.00;;;;;;5036630;28;20024;-82
2020/12/12 09:36:16;;;;;;;33.38;12.90;;;-1.80;90.00;;;;;;5055139;28;20032;-82
2020/12/12 09:38:42;;;;;;;32.58;13.73;;;-1.80;90.00;;;;;;5056488;28;20020;-80
2020/12/12 09:41:08;;;;;;;33.60;14.73;;;-1.80;90.10;;;;;;5054099;28;20506;-81
2020/12/12 09:43:33;;;;;;;40.67;16.52;;;-1.80;90.10;;;;;;5052817;28;20021;-81
2020/12/12 09:45:59;;;;;;;32.10;14.68;;;-1.80;90.10;;;;;;5052759;28;20365;-81
2020/12/12 09:48:25;;;;;;;33.28;14.93;;;-1.80;90.30;;;;;;5053515;28;20032;-80
2020/12/12 09:50:51;;;;;;;31.58;12.90;;;-1.70;90.20;;;;;;5053452;28;20044;-81
2020/12/12 09:53:17;;;;;;;33.28;12.95;;;-1.80;90.10;;;;;;5052890;28;20025;-81
2020/12/12 09:55:43;;;;;;;37.78;13.52;;;-1.70;90.10;;;;;;5052940;28;20024;-80
2020/12/12 09:58:09;;;;;;;33.42;14.57;;;-1.80;90.10;;;;;;5053296;28;20024;-80
2020/12/12 10:00:40;;;;;;;32.42;14.95;;;-1.70;90.10;;;;;;5053254;28;20025;-80
2020/12/12 10:03:06;;;;;;;54.63;21.88;;;-1.70;90.30;;;;;;5053264;28;20047;-79
2020/12/12 10:05:33;;;;;;;36.47;14.15;;;-1.70;90.40;;;;;;5052546;28;20036;-81
2020/12/12 10:07:59;;;;;;;41.95;16.42;;;-1.60;90.40;;;;;;5053071;28;20498;-81
2020/12/12 10:10:26;;;;;;;41.55;16.02;;;-1.60;90.30;;;;;;5053533;28;20025;-80
2020/12/12 10:12:52;;;;;;;36.15;14.95;;;-1.60;90.20;;;;;;5052562;28;20029;-80
2020/12/12 10:15:19;;;;;;;37.50;15.73;;;-1.60;90.30;;;;;;5035210;28;20036;-79
2020/12/12 10:17:46;;;;;;;37.45;16.27;;;-1.60;90.20;;;;;;5054519;28;20081;-79
2020/12/12 10:20:12;;;;;;;41.78;17.00;;;-1.60;90.00;;;;;;5054401;28;20058;-80
2020/12/12 10:22:39;;;;;;;38.95;16.25;;;-1.60;90.20;;;;;;5055983;28;20483;-80
2020/12/12 10:25:05;;;;;;;36.55;16.20;;;-1.60;90.20;;;;;;5054750;28;20076;-80
2020/12/12 10:27:36;;;;;;;36.88;14.95;;;-1.50;90.30;;;;;;5054879;28;20059;-80
2020/12/12 10:30:08;;;;;;;42.05;15.77;;;-1.50;90.20;;;;;;5037005;28;20025;-80
2020/12/12 10:32:34;;;;;;;38.55;13.90;;;-1.60;90.10;;;;;;5036628;28;20025;-79
2020/12/12 10:35:00;;;;;;;48.15;18.30;;;-1.50;90.20;;;;;;5037238;28;20041;-79
2020/12/12 10:37:25;;;;;;;36.47;16.10;;;-1.50;90.30;;;;;;5035930;28;20364;-80
2020/12/12 10:42:17;;;;;;;41.75;15.27;;;-1.50;90.10;;;;;;5054115;28;20052;-80
2020/12/12 10:44:43;;;;;;;42.13;16.77;;;-1.50;90.00;;;;;;5053264;28;20032;-80
2020/12/12 10:47:09;;;;;;;44.58;17.08;;;-1.50;90.10;;;;;;5035514;28;20156;-79
2020/12/12 10:49:34;;;;;;;36.25;14.95;;;-1.60;90.10;;;;;;5052087;28;20039;-80
2020/12/12 10:52:02;;;;;;;49.63;19.52;;;-1.50;90.20;;;;;;5034594;28;20024;-79
2020/12/12 10:54:28;;;;;;;36.95;15.60;;;-1.50;90.10;;;;;;5054053;28;20017;-79
2020/12/12 10:56:54;;;;;;;38.25;16.25;;;-1.50;90.20;;;;;;5038177;28;20024;-80
2020/12/12 10:59:20;;;;;;;35.65;16.48;;;-1.50;90.30;;;;;;5053929;28;20032;-80
2020/12/12 11:01:46;;;;;;;53.25;19.05;;;-1.50;90.00;;;;;;5053180;28;20095;-79
2020/12/12 11:04:11;;;;;;;43.22;20.15;;;-1.50;90.00;;;;;;5053175;28;20025;-80
2020/12/12 11:06:37;;;;;;;47.80;17.08;;;-1.50;90.00;;;;;;5053566;28;20044;-79
2020/12/12 11:09:04;;;;;;;40.00;17.45;;;-1.60;90.00;;;;;;5052483;28;20044;-79
2020/12/12 11:11:29;;;;;;;37.00;15.02;;;-1.60;90.00;;;;;;5052641;28;20029;-80
2020/12/12 11:13:55;;;;;;;36.03;14.60;;;-1.60;90.10;;;;;;5053693;28;20525;-80
2020/12/12 11:16:23;;;;;;;40.63;17.77;;;-1.60;90.10;;;;;;5052383;28;20021;-81
2020/12/12 11:18:53;;;;;;;37.22;14.48;;;-1.60;90.00;;;;;;5052040;28;20025;-79
2020/12/12 11:21:23;;;;;;;42.00;16.90;;;-1.60;90.10;;;;;;5051818;28;20051;-80
2020/12/12 11:23:49;;;;;;;48.45;19.52;;;-1.60;90.10;;;;;;5051957;28;20067;-80
2020/12/12 11:26:19;;;;;;;50.92;18.58;;;-1.60;90.20;;;;;;5034161;28;20072;-80
2020/12/12 11:28:45;;;;;;;63.70;35.40;;;-1.60;90.30;;;;;;5051873;28;20053;-80
2020/12/12 11:31:16;;;;;;;48.55;23.77;;;-1.60;90.10;;;;;;5051618;28;20032;-79
2020/12/12 11:33:43;;;;;;;44.00;19.10;;;-1.70;90.00;;;;;;5051368;28;20371;-80
2020/12/12 11:46:28;;;;;;;43.80;17.98;;;-1.70;90.20;;;;;;5052749;28;20118;-78
2020/12/12 11:48:54;;;;;;;46.42;17.88;;;-1.70;90.10;;;;;;5052948;28;20109;-79
2020/12/12 11:51:20;;;;;;;39.38;17.42;;;-1.80;90.20;;;;;;5052147;28;20025;-80
2020/12/12 11:53:47;;;;;;;46.55;20.55;;;-1.80;90.20;;;;;;5052481;28;20067;-80
2020/12/12 11:56:20;;;;;;;39.28;16.50;;;-1.80;90.30;;;;;;5052129;28;20352;-78
2020/12/12 11:58:46;;;;;;;48.53;18.67;;;-1.80;90.30;;;;;;5032374;28;20017;-76
2020/12/12 12:01:17;;;;;;;51.33;21.85;;;-1.80;90.50;;;;;;5050762;28;20452;-78
2020/12/12 12:03:43;;;;;;;83.35;31.23;;;-1.80;90.50;;;;;;5050417;28;20025;-76
2020/12/12 12:06:08;;;;;;;57.33;23.42;;;-1.70;90.60;;;;;;5050032;28;20029;-77
2020/12/12 12:08:47;;;;;;;46.92;19.90;;;-1.70;90.60;;;;;;5031809;28;20146;-77
2020/12/12 12:13:39;;;;;;;63.47;26.05;;;-1.70;90.60;;;;;;5050131;28;20053;-78
2020/12/12 12:16:05;;;;;;;62.30;21.67;;;-1.70;90.70;;;;;;5050104;28;20052;-77
2020/12/12 12:18:31;;;;;;;56.80;24.63;;;-1.70;90.90;;;;;;5050286;28;20092;-77
2020/12/12 12:20:58;;;;;;;67.10;26.40;;;-1.60;90.90;;;;;;5050067;28;20211;-78
2020/12/12 12:23:24;;;;;;;45.72;19.65;;;-1.60;90.90;;;;;;5050009;28;20114;-77
2020/12/12 12:25:51;;;;;;;48.03;21.67;;;-1.60;90.70;;;;;;5049506;28;20163;-77
2020/12/12 12:28:18;;;;;;;58.15;24.98;;;-1.60;90.60;;;;;;5033469;28;20033;-77
2020/12/12 12:30:44;;;;;;;55.33;22.48;;;-1.60;90.80;;;;;;5050262;28;20028;-78
2020/12/12 12:33:09;;;;;;;55.30;21.65;;;-1.60;90.90;;;;;;5050152;28;20451;-78
2020/12/12 12:35:35;;;;;;;53.88;21.27;;;-1.60;90.80;;;;;;5050155;28;20021;-78
2020/12/12 12:38:01;;;;;;;50.55;20.92;;;-1.60;90.70;;;;;;5049883;28;20016;-77
2020/12/12 12:40:26;;;;;;;63.60;22.35;;;-1.60;90.70;;;;;;5050220;28;20467;-77
2020/12/12 12:42:52;;;;;;;42.00;18.08;;;-1.60;90.70;;;;;;5049790;28;20029;-78
2020/12/12 12:45:18;;;;;;;67.32;28.27;;;-1.70;90.80;;;;;;5035359;28;20104;-79